sensor_id;sensor_type;location;lat;lon;timestamp;temperature;humidity
6690;DHT22;3382;51.576;8.076;2022-07-05T00:00:09;17.80;99.90
6690;DHT22;3382;51.576;8.076;2022-07-05T00:02:35;17.70;99.90
6690;DHT22;3382;51.576;8.076;2022-07-05T00:05:00;17.80;99.90
6690;DHT22;3382;51.576;8.076;2022-07-05T00:07:28;17.70;99.90
6690;DHT22;3382;51.576;8.076;2022-07-05T00:09:56;17.70;99.90
6690;DHT22;3382;51.576;8.076;2022-07-05T00:12:30;17.60;99.90
6690;DHT22;3382;51.576;8.076;2022-07-05T00:14:58;17.50;99.90
6690;DHT22;3382;51.576;8.076;2022-07-05T00:17:24;17.50;99.90
6690;DHT22;3382;51.576;8.076;2022-07-05T00:19:50;17.40;99.90
6690;DHT22;3382;51.576;8.076;2022-07-05T00:22:16;17.40;99.90
6690;DHT22;3382;51.576;8.076;2022-07-05T00:24:41;17.40;99.90
6690;DHT22;3382;51.576;8.076;2022-07-05T00:27:07;17.40;99.90
6690;DHT22;3382;51.576;8.076;2022-07-05T00:29:33;17.30;99.90
6690;DHT22;3382;51.576;8.076;2022-07-05T00:31:58;17.30;99.90
6690;DHT22;3382;51.576;8.076;2022-07-05T00:34:24;17.20;99.90
6690;DHT22;3382;51.576;8.076;2022-07-05T00:36:50;17.20;99.90
6690;DHT22;3382;51.576;8.076;2022-07-05T00:39:16;17.00;99.90
6690;DHT22;3382;51.576;8.076;2022-07-05T00:41:41;17.00;99.90
6690;DHT22;3382;51.576;8.076;2022-07-05T00:44:11;17.00;99.90
6690;DHT22;3382;51.576;8.076;2022-07-05T00:46:38;17.00;99.90
6690;DHT22;3382;51.576;8.076;2022-07-05T00:49:05;16.90;99.90
6690;DHT22;3382;51.576;8.076;2022-07-05T00:51:35;16.90;99.90
6690;DHT22;3382;51.576;8.076;2022-07-05T00:54:02;16.90;99.90
6690;DHT22;3382;51.576;8.076;2022-07-05T00:56:28;16.90;99.90
6690;DHT22;3382;51.576;8.076;2022-07-05T00:58:54;16.80;99.90
6690;DHT22;3382;51.576;8.076;2022-07-05T01:01:20;16.80;99.90
6690;DHT22;3382;51.576;8.076;2022-07-05T01:03:47;16.80;99.90
6690;DHT22;3382;51.576;8.076;2022-07-05T01:06:13;16.80;99.90
6690;DHT22;3382;51.576;8.076;2022-07-05T01:08:41;16.80;99.90
6690;DHT22;3382;51.576;8.076;2022-07-05T01:11:07;16.80;99.90
6690;DHT22;3382;51.576;8.076;2022-07-05T01:13:35;16.80;99.90
6690;DHT22;3382;51.576;8.076;2022-07-05T01:16:02;16.70;99.90
6690;DHT22;3382;51.576;8.076;2022-07-05T01:18:28;16.70;99.90
6690;DHT22;3382;51.576;8.076;2022-07-05T01:20:54;16.70;99.90
6690;DHT22;3382;51.576;8.076;2022-07-05T01:23:22;16.70;99.90
6690;DHT22;3382;51.576;8.076;2022-07-05T01:25:48;16.70;99.90
6690;DHT22;3382;51.576;8.076;2022-07-05T01:28:14;16.60;99.90
6690;DHT22;3382;51.576;8.076;2022-07-05T01:30:42;16.50;99.90
6690;DHT22;3382;51.576;8.076;2022-07-05T01:33:08;16.50;99.90
6690;DHT22;3382;51.576;8.076;2022-07-05T01:35:35;16.50;99.90
6690;DHT22;3382;51.576;8.076;2022-07-05T01:38:02;16.30;99.90
6690;DHT22;3382;51.576;8.076;2022-07-05T01:40:27;16.40;99.90
6690;DHT22;3382;51.576;8.076;2022-07-05T01:42:53;16.30;99.90
6690;DHT22;3382;51.576;8.076;2022-07-05T01:45:19;16.30;99.90
6690;DHT22;3382;51.576;8.076;2022-07-05T01:48:14;16.20;99.90
6690;DHT22;3382;51.576;8.076;2022-07-05T01:51:01;16.10;99.90
6690;DHT22;3382;51.576;8.076;2022-07-05T01:53:30;16.00;99.90
6690;DHT22;3382;51.576;8.076;2022-07-05T01:56:00;16.00;99.90
6690;DHT22;3382;51.576;8.076;2022-07-05T01:58:26;16.00;99.90
6690;DHT22;3382;51.576;8.076;2022-07-05T02:00:54;15.90;99.90
6690;DHT22;3382;51.576;8.076;2022-07-05T02:03:21;15.90;99.90
6690;DHT22;3382;51.576;8.076;2022-07-05T02:05:47;15.90;99.90
6690;DHT22;3382;51.576;8.076;2022-07-05T02:08:14;16.00;99.90
6690;DHT22;3382;51.576;8.076;2022-07-05T02:10:41;16.10;99.90
6690;DHT22;3382;51.576;8.076;2022-07-05T02:13:08;16.10;99.90
6690;DHT22;3382;51.576;8.076;2022-07-05T02:15:38;16.10;99.90
6690;DHT22;3382;51.576;8.076;2022-07-05T02:18:05;16.10;99.90
6690;DHT22;3382;51.576;8.076;2022-07-05T02:20:33;16.20;99.90
6690;DHT22;3382;51.576;8.076;2022-07-05T02:22:58;16.20;99.90
6690;DHT22;3382;51.576;8.076;2022-07-05T02:25:24;16.20;99.90
6690;DHT22;3382;51.576;8.076;2022-07-05T02:27:52;16.20;99.90
6690;DHT22;3382;51.576;8.076;2022-07-05T02:30:18;16.20;99.90
6690;DHT22;3382;51.576;8.076;2022-07-05T02:32:46;16.20;99.90
6690;DHT22;3382;51.576;8.076;2022-07-05T02:35:13;16.20;99.90
6690;DHT22;3382;51.576;8.076;2022-07-05T02:37:38;16.20;99.90
6690;DHT22;3382;51.576;8.076;2022-07-05T02:40:06;16.10;99.90
6690;DHT22;3382;51.576;8.076;2022-07-05T02:42:32;16.10;99.90
6690;DHT22;3382;51.576;8.076;2022-07-05T02:44:58;16.10;99.90
6690;DHT22;3382;51.576;8.076;2022-07-05T02:47:23;16.00;99.90
6690;DHT22;3382;51.576;8.076;2022-07-05T02:49:49;16.00;99.90
6690;DHT22;3382;51.576;8.076;2022-07-05T02:52:15;16.00;99.90
6690;DHT22;3382;51.576;8.076;2022-07-05T02:54:40;15.90;99.90
6690;DHT22;3382;51.576;8.076;2022-07-05T02:57:06;15.90;99.90
6690;DHT22;3382;51.576;8.076;2022-07-05T02:59:32;16.00;99.90
6690;DHT22;3382;51.576;8.076;2022-07-05T03:01:57;16.00;99.90
6690;DHT22;3382;51.576;8.076;2022-07-05T03:04:23;16.00;99.90
6690;DHT22;3382;51.576;8.076;2022-07-05T03:06:49;15.90;99.90
6690;DHT22;3382;51.576;8.076;2022-07-05T03:09:14;15.90;99.90
6690;DHT22;3382;51.576;8.076;2022-07-05T03:11:40;15.90;99.90
6690;DHT22;3382;51.576;8.076;2022-07-05T03:14:06;15.90;99.90
6690;DHT22;3382;51.576;8.076;2022-07-05T03:16:31;15.90;99.90
6690;DHT22;3382;51.576;8.076;2022-07-05T03:18:57;15.90;99.90
6690;DHT22;3382;51.576;8.076;2022-07-05T03:21:23;15.90;99.90
6690;DHT22;3382;51.576;8.076;2022-07-05T03:23:49;15.80;99.90
6690;DHT22;3382;51.576;8.076;2022-07-05T03:26:14;15.80;99.90
6690;DHT22;3382;51.576;8.076;2022-07-05T03:28:40;15.90;99.90
6690;DHT22;3382;51.576;8.076;2022-07-05T03:31:06;16.00;99.90
6690;DHT22;3382;51.576;8.076;2022-07-05T03:33:31;16.00;99.90
6690;DHT22;3382;51.576;8.076;2022-07-05T03:35:57;16.00;99.90
6690;DHT22;3382;51.576;8.076;2022-07-05T03:38:23;15.90;99.90
6690;DHT22;3382;51.576;8.076;2022-07-05T03:40:48;15.90;99.90
6690;DHT22;3382;51.576;8.076;2022-07-05T03:43:14;15.90;99.90
6690;DHT22;3382;51.576;8.076;2022-07-05T03:45:43;15.90;99.90
6690;DHT22;3382;51.576;8.076;2022-07-05T03:48:08;16.00;99.90
6690;DHT22;3382;51.576;8.076;2022-07-05T03:50:34;16.00;99.90
6690;DHT22;3382;51.576;8.076;2022-07-05T03:53:00;16.00;99.90
6690;DHT22;3382;51.576;8.076;2022-07-05T03:55:25;16.00;99.90
6690;DHT22;3382;51.576;8.076;2022-07-05T03:57:51;16.00;99.90
6690;DHT22;3382;51.576;8.076;2022-07-05T04:00:17;16.00;99.90
6690;DHT22;3382;51.576;8.076;2022-07-05T04:02:43;16.00;99.90
6690;DHT22;3382;51.576;8.076;2022-07-05T04:05:09;16.00;99.90
6690;DHT22;3382;51.576;8.076;2022-07-05T04:07:47;16.00;99.90
6690;DHT22;3382;51.576;8.076;2022-07-05T04:10:13;16.00;99.90
6690;DHT22;3382;51.576;8.076;2022-07-05T04:12:38;16.00;99.90
6690;DHT22;3382;51.576;8.076;2022-07-05T04:15:04;16.00;99.90
6690;DHT22;3382;51.576;8.076;2022-07-05T04:17:30;16.10;99.90
6690;DHT22;3382;51.576;8.076;2022-07-05T04:19:55;16.10;99.90
6690;DHT22;3382;51.576;8.076;2022-07-05T04:22:21;16.10;99.90
6690;DHT22;3382;51.576;8.076;2022-07-05T04:24:47;16.20;99.90
6690;DHT22;3382;51.576;8.076;2022-07-05T04:27:31;16.20;99.90
6690;DHT22;3382;51.576;8.076;2022-07-05T04:30:00;16.20;99.90
6690;DHT22;3382;51.576;8.076;2022-07-05T04:32:25;16.20;99.90
6690;DHT22;3382;51.576;8.076;2022-07-05T04:34:51;16.20;99.90
6690;DHT22;3382;51.576;8.076;2022-07-05T04:37:16;16.30;99.90
6690;DHT22;3382;51.576;8.076;2022-07-05T04:39:42;16.40;99.90
6690;DHT22;3382;51.576;8.076;2022-07-05T04:42:09;16.50;99.90
6690;DHT22;3382;51.576;8.076;2022-07-05T04:44:34;16.50;99.90
6690;DHT22;3382;51.576;8.076;2022-07-05T04:47:00;16.50;99.90
6690;DHT22;3382;51.576;8.076;2022-07-05T04:49:26;16.60;99.90
6690;DHT22;3382;51.576;8.076;2022-07-05T04:51:51;16.70;99.90
6690;DHT22;3382;51.576;8.076;2022-07-05T04:54:17;16.70;99.90
6690;DHT22;3382;51.576;8.076;2022-07-05T04:56:42;16.80;99.90
6690;DHT22;3382;51.576;8.076;2022-07-05T04:59:08;16.90;99.90
6690;DHT22;3382;51.576;8.076;2022-07-05T05:01:34;17.10;99.90
6690;DHT22;3382;51.576;8.076;2022-07-05T05:03:59;17.40;99.90
6690;DHT22;3382;51.576;8.076;2022-07-05T05:06:26;17.70;99.90
6690;DHT22;3382;51.576;8.076;2022-07-05T05:08:51;17.70;99.90
6690;DHT22;3382;51.576;8.076;2022-07-05T05:11:17;17.80;99.90
6690;DHT22;3382;51.576;8.076;2022-07-05T05:13:43;17.90;99.90
6690;DHT22;3382;51.576;8.076;2022-07-05T05:16:11;18.00;99.90
6690;DHT22;3382;51.576;8.076;2022-07-05T05:18:36;18.10;99.90
6690;DHT22;3382;51.576;8.076;2022-07-05T05:21:02;18.30;99.90
6690;DHT22;3382;51.576;8.076;2022-07-05T05:23:27;18.40;99.90
6690;DHT22;3382;51.576;8.076;2022-07-05T05:25:53;18.40;99.90
6690;DHT22;3382;51.576;8.076;2022-07-05T05:28:19;18.50;99.90
6690;DHT22;3382;51.576;8.076;2022-07-05T05:30:45;18.50;99.90
6690;DHT22;3382;51.576;8.076;2022-07-05T05:33:10;18.80;99.90
6690;DHT22;3382;51.576;8.076;2022-07-05T05:35:36;18.90;99.90
6690;DHT22;3382;51.576;8.076;2022-07-05T05:38:01;19.00;99.90
6690;DHT22;3382;51.576;8.076;2022-07-05T05:40:27;19.10;99.90
6690;DHT22;3382;51.576;8.076;2022-07-05T05:42:54;19.30;99.90
6690;DHT22;3382;51.576;8.076;2022-07-05T05:45:21;19.40;99.90
6690;DHT22;3382;51.576;8.076;2022-07-05T05:47:49;19.80;99.90
6690;DHT22;3382;51.576;8.076;2022-07-05T05:50:20;20.20;99.90
6690;DHT22;3382;51.576;8.076;2022-07-05T05:52:46;20.60;99.90
6690;DHT22;3382;51.576;8.076;2022-07-05T05:55:12;21.00;99.90
6690;DHT22;3382;51.576;8.076;2022-07-05T05:57:37;21.50;99.90
6690;DHT22;3382;51.576;8.076;2022-07-05T06:00:06;21.90;99.90
6690;DHT22;3382;51.576;8.076;2022-07-05T06:02:33;22.20;99.90
6690;DHT22;3382;51.576;8.076;2022-07-05T06:04:58;22.50;99.90
6690;DHT22;3382;51.576;8.076;2022-07-05T06:07:24;22.70;99.90
6690;DHT22;3382;51.576;8.076;2022-07-05T06:09:50;23.00;99.90
6690;DHT22;3382;51.576;8.076;2022-07-05T06:12:16;23.20;99.90
6690;DHT22;3382;51.576;8.076;2022-07-05T06:14:41;23.40;99.90
6690;DHT22;3382;51.576;8.076;2022-07-05T06:17:07;23.10;99.90
6690;DHT22;3382;51.576;8.076;2022-07-05T06:19:32;22.70;99.90
6690;DHT22;3382;51.576;8.076;2022-07-05T06:21:58;22.30;99.90
6690;DHT22;3382;51.576;8.076;2022-07-05T06:24:24;22.00;99.90
6690;DHT22;3382;51.576;8.076;2022-07-05T06:26:49;21.60;99.90
6690;DHT22;3382;51.576;8.076;2022-07-05T06:29:15;21.50;99.90
6690;DHT22;3382;51.576;8.076;2022-07-05T06:31:40;21.50;99.90
6690;DHT22;3382;51.576;8.076;2022-07-05T06:34:06;21.40;99.90
6690;DHT22;3382;51.576;8.076;2022-07-05T06:36:32;21.30;99.90
6690;DHT22;3382;51.576;8.076;2022-07-05T06:38:58;21.20;99.90
6690;DHT22;3382;51.576;8.076;2022-07-05T06:41:24;21.00;99.90
6690;DHT22;3382;51.576;8.076;2022-07-05T06:43:49;20.90;99.90
6690;DHT22;3382;51.576;8.076;2022-07-05T06:46:15;20.70;99.90
6690;DHT22;3382;51.576;8.076;2022-07-05T06:48:41;20.60;99.90
6690;DHT22;3382;51.576;8.076;2022-07-05T06:51:06;20.50;99.90
6690;DHT22;3382;51.576;8.076;2022-07-05T06:53:32;20.40;99.90
6690;DHT22;3382;51.576;8.076;2022-07-05T06:55:58;20.40;99.90
6690;DHT22;3382;51.576;8.076;2022-07-05T06:58:24;20.40;99.90
6690;DHT22;3382;51.576;8.076;2022-07-05T07:00:50;20.40;99.90
6690;DHT22;3382;51.576;8.076;2022-07-05T07:03:15;20.40;99.90
6690;DHT22;3382;51.576;8.076;2022-07-05T07:05:41;20.40;99.90
6690;DHT22;3382;51.576;8.076;2022-07-05T07:08:07;20.40;99.90
6690;DHT22;3382;51.576;8.076;2022-07-05T07:10:51;20.40;99.90
6690;DHT22;3382;51.576;8.076;2022-07-05T07:13:17;20.50;99.90
6690;DHT22;3382;51.576;8.076;2022-07-05T07:15:44;20.50;99.90
6690;DHT22;3382;51.576;8.076;2022-07-05T07:18:12;20.70;99.90
6690;DHT22;3382;51.576;8.076;2022-07-05T07:20:37;20.70;99.90
6690;DHT22;3382;51.576;8.076;2022-07-05T07:23:03;20.60;99.90
6690;DHT22;3382;51.576;8.076;2022-07-05T07:25:28;20.70;99.90
6690;DHT22;3382;51.576;8.076;2022-07-05T07:27:55;20.70;99.90
6690;DHT22;3382;51.576;8.076;2022-07-05T07:30:23;20.80;99.90
6690;DHT22;3382;51.576;8.076;2022-07-05T07:32:50;20.80;99.90
6690;DHT22;3382;51.576;8.076;2022-07-05T07:35:16;20.80;99.90
6690;DHT22;3382;51.576;8.076;2022-07-05T07:37:42;20.90;99.90
6690;DHT22;3382;51.576;8.076;2022-07-05T07:40:08;21.00;99.90
6690;DHT22;3382;51.576;8.076;2022-07-05T07:42:34;21.00;99.90
6690;DHT22;3382;51.576;8.076;2022-07-05T07:45:00;21.10;99.90
6690;DHT22;3382;51.576;8.076;2022-07-05T07:47:33;21.20;99.90
6690;DHT22;3382;51.576;8.076;2022-07-05T07:49:59;21.20;99.90
6690;DHT22;3382;51.576;8.076;2022-07-05T07:52:25;21.20;99.90
6690;DHT22;3382;51.576;8.076;2022-07-05T07:54:50;21.10;99.90
6690;DHT22;3382;51.576;8.076;2022-07-05T07:57:16;21.20;99.90
6690;DHT22;3382;51.576;8.076;2022-07-05T07:59:42;21.30;99.90
6690;DHT22;3382;51.576;8.076;2022-07-05T08:02:07;21.40;99.90
6690;DHT22;3382;51.576;8.076;2022-07-05T08:04:34;21.50;99.90
6690;DHT22;3382;51.576;8.076;2022-07-05T08:06:59;21.50;99.90
6690;DHT22;3382;51.576;8.076;2022-07-05T08:09:25;21.60;99.90
6690;DHT22;3382;51.576;8.076;2022-07-05T08:11:51;21.70;99.90
6690;DHT22;3382;51.576;8.076;2022-07-05T08:14:17;21.90;99.90
6690;DHT22;3382;51.576;8.076;2022-07-05T08:16:45;22.00;99.90
6690;DHT22;3382;51.576;8.076;2022-07-05T08:19:11;22.00;99.90
6690;DHT22;3382;51.576;8.076;2022-07-05T08:21:55;21.90;99.90
6690;DHT22;3382;51.576;8.076;2022-07-05T08:24:21;22.00;99.90
6690;DHT22;3382;51.576;8.076;2022-07-05T08:26:46;22.10;99.90
6690;DHT22;3382;51.576;8.076;2022-07-05T08:29:13;22.50;99.90
6690;DHT22;3382;51.576;8.076;2022-07-05T08:31:45;23.00;99.90
6690;DHT22;3382;51.576;8.076;2022-07-05T08:34:12;23.30;99.90
6690;DHT22;3382;51.576;8.076;2022-07-05T08:36:38;23.20;99.90
6690;DHT22;3382;51.576;8.076;2022-07-05T08:39:05;23.20;99.90
6690;DHT22;3382;51.576;8.076;2022-07-05T08:41:33;23.20;99.90
6690;DHT22;3382;51.576;8.076;2022-07-05T08:44:00;23.20;99.90
6690;DHT22;3382;51.576;8.076;2022-07-05T08:46:30;23.30;99.90
6690;DHT22;3382;51.576;8.076;2022-07-05T08:48:59;23.40;99.90
6690;DHT22;3382;51.576;8.076;2022-07-05T08:51:27;23.50;99.90
6690;DHT22;3382;51.576;8.076;2022-07-05T08:53:54;23.60;99.90
6690;DHT22;3382;51.576;8.076;2022-07-05T08:56:21;23.80;99.90
6690;DHT22;3382;51.576;8.076;2022-07-05T08:58:47;23.90;99.90
6690;DHT22;3382;51.576;8.076;2022-07-05T09:01:15;23.90;99.90
6690;DHT22;3382;51.576;8.076;2022-07-05T09:03:47;23.90;99.90
6690;DHT22;3382;51.576;8.076;2022-07-05T09:06:16;24.00;99.90
6690;DHT22;3382;51.576;8.076;2022-07-05T09:08:42;24.00;99.90
6690;DHT22;3382;51.576;8.076;2022-07-05T09:11:13;24.10;99.90
6690;DHT22;3382;51.576;8.076;2022-07-05T09:13:41;24.00;99.90
6690;DHT22;3382;51.576;8.076;2022-07-05T09:16:07;24.00;99.90
6690;DHT22;3382;51.576;8.076;2022-07-05T09:21:15;23.90;99.90
6690;DHT22;3382;51.576;8.076;2022-07-05T09:23:41;23.90;99.90
6690;DHT22;3382;51.576;8.076;2022-07-05T09:26:07;23.90;99.90
6690;DHT22;3382;51.576;8.076;2022-07-05T09:28:33;24.00;99.90
6690;DHT22;3382;51.576;8.076;2022-07-05T09:30:59;24.10;99.90
6690;DHT22;3382;51.576;8.076;2022-07-05T09:33:25;24.30;99.90
6690;DHT22;3382;51.576;8.076;2022-07-05T09:35:56;24.40;99.90
6690;DHT22;3382;51.576;8.076;2022-07-05T09:38:23;24.50;99.90
6690;DHT22;3382;51.576;8.076;2022-07-05T09:40:57;24.80;99.90
6690;DHT22;3382;51.576;8.076;2022-07-05T09:43:28;24.90;99.90
6690;DHT22;3382;51.576;8.076;2022-07-05T09:45:59;24.90;99.90
6690;DHT22;3382;51.576;8.076;2022-07-05T09:48:30;24.90;99.90
6690;DHT22;3382;51.576;8.076;2022-07-05T09:51:13;24.90;99.90
6690;DHT22;3382;51.576;8.076;2022-07-05T09:53:50;25.00;98.10
6690;DHT22;3382;51.576;8.076;2022-07-05T09:56:17;24.90;95.90
6690;DHT22;3382;51.576;8.076;2022-07-05T09:58:43;24.80;95.50
6690;DHT22;3382;51.576;8.076;2022-07-05T10:01:30;24.80;95.90
6690;DHT22;3382;51.576;8.076;2022-07-05T10:03:58;24.90;95.10
6690;DHT22;3382;51.576;8.076;2022-07-05T10:06:26;25.00;95.10
6690;DHT22;3382;51.576;8.076;2022-07-05T10:08:55;25.20;96.00
6690;DHT22;3382;51.576;8.076;2022-07-05T10:11:22;25.30;95.10
6690;DHT22;3382;51.576;8.076;2022-07-05T10:13:52;25.30;93.80
6690;DHT22;3382;51.576;8.076;2022-07-05T10:16:20;25.30;93.20
6690;DHT22;3382;51.576;8.076;2022-07-05T10:18:47;25.20;91.90
6690;DHT22;3382;51.576;8.076;2022-07-05T10:21:14;25.40;92.90
6690;DHT22;3382;51.576;8.076;2022-07-05T10:23:45;25.50;92.40
6690;DHT22;3382;51.576;8.076;2022-07-05T10:26:12;25.60;91.20
6690;DHT22;3382;51.576;8.076;2022-07-05T10:28:39;25.60;91.50
6690;DHT22;3382;51.576;8.076;2022-07-05T10:31:07;25.70;90.80
6690;DHT22;3382;51.576;8.076;2022-07-05T10:33:35;25.80;90.20
6690;DHT22;3382;51.576;8.076;2022-07-05T10:36:01;25.70;89.20
6690;DHT22;3382;51.576;8.076;2022-07-05T10:38:27;25.60;89.60
6690;DHT22;3382;51.576;8.076;2022-07-05T10:40:57;25.70;90.50
6690;DHT22;3382;51.576;8.076;2022-07-05T10:43:24;25.90;90.80
6690;DHT22;3382;51.576;8.076;2022-07-05T10:45:51;26.00;90.40
6690;DHT22;3382;51.576;8.076;2022-07-05T10:48:19;26.00;90.30
6690;DHT22;3382;51.576;8.076;2022-07-05T10:53:10;26.10;88.00
6690;DHT22;3382;51.576;8.076;2022-07-05T10:55:58;25.70;87.80
6690;DHT22;3382;51.576;8.076;2022-07-05T10:58:25;25.60;90.00
6690;DHT22;3382;51.576;8.076;2022-07-05T11:06:04;25.70;90.00
6690;DHT22;3382;51.576;8.076;2022-07-05T11:08:31;25.70;89.00
6690;DHT22;3382;51.576;8.076;2022-07-05T11:11:09;25.50;87.60
6690;DHT22;3382;51.576;8.076;2022-07-05T11:13:37;25.50;88.10
6690;DHT22;3382;51.576;8.076;2022-07-05T11:19:06;25.50;89.00
6690;DHT22;3382;51.576;8.076;2022-07-05T11:21:35;25.60;88.60
6690;DHT22;3382;51.576;8.076;2022-07-05T11:24:24;25.50;86.00
6690;DHT22;3382;51.576;8.076;2022-07-05T11:26:52;25.50;87.20
6690;DHT22;3382;51.576;8.076;2022-07-05T11:32:07;25.70;85.40
6690;DHT22;3382;51.576;8.076;2022-07-05T11:34:34;25.70;84.30
6690;DHT22;3382;51.576;8.076;2022-07-05T11:39:45;25.60;82.20
6690;DHT22;3382;51.576;8.076;2022-07-05T11:42:21;25.50;83.60
6690;DHT22;3382;51.576;8.076;2022-07-05T11:44:50;25.50;83.30
6690;DHT22;3382;51.576;8.076;2022-07-05T11:47:17;25.20;83.70
6690;DHT22;3382;51.576;8.076;2022-07-05T11:49:53;25.20;84.10
6690;DHT22;3382;51.576;8.076;2022-07-05T11:52:25;25.10;84.00
6690;DHT22;3382;51.576;8.076;2022-07-05T11:54:51;25.10;84.50
6690;DHT22;3382;51.576;8.076;2022-07-05T11:57:18;25.20;86.20
6690;DHT22;3382;51.576;8.076;2022-07-05T11:59:44;25.30;85.30
6690;DHT22;3382;51.576;8.076;2022-07-05T12:02:10;25.40;84.30
6690;DHT22;3382;51.576;8.076;2022-07-05T12:04:36;25.50;86.00
6690;DHT22;3382;51.576;8.076;2022-07-05T12:07:01;25.60;83.70
6690;DHT22;3382;51.576;8.076;2022-07-05T12:09:33;25.70;82.40
6690;DHT22;3382;51.576;8.076;2022-07-05T12:12:19;25.70;82.20
6690;DHT22;3382;51.576;8.076;2022-07-05T12:15:04;25.90;96.00
6690;DHT22;3382;51.576;8.076;2022-07-05T12:17:29;26.90;99.90
6690;DHT22;3382;51.576;8.076;2022-07-05T12:19:55;26.10;95.20
6690;DHT22;3382;51.576;8.076;2022-07-05T12:22:34;25.50;91.00
6690;DHT22;3382;51.576;8.076;2022-07-05T12:25:02;25.20;88.90
6690;DHT22;3382;51.576;8.076;2022-07-05T12:27:28;25.20;89.30
6690;DHT22;3382;51.576;8.076;2022-07-05T12:29:58;25.30;87.70
6690;DHT22;3382;51.576;8.076;2022-07-05T12:32:24;25.30;85.40
6690;DHT22;3382;51.576;8.076;2022-07-05T12:34:50;25.40;84.70
6690;DHT22;3382;51.576;8.076;2022-07-05T12:37:22;25.50;82.60
6690;DHT22;3382;51.576;8.076;2022-07-05T12:39:49;25.60;82.40
6690;DHT22;3382;51.576;8.076;2022-07-05T12:45:12;25.60;79.30
6690;DHT22;3382;51.576;8.076;2022-07-05T12:50:22;25.50;79.90
6690;DHT22;3382;51.576;8.076;2022-07-05T12:53:03;25.70;78.20
6690;DHT22;3382;51.576;8.076;2022-07-05T12:58:54;25.70;75.20
6690;DHT22;3382;51.576;8.076;2022-07-05T13:06:44;25.30;75.30
6690;DHT22;3382;51.576;8.076;2022-07-05T13:09:11;25.40;75.00
6690;DHT22;3382;51.576;8.076;2022-07-05T13:11:37;25.50;74.80
6690;DHT22;3382;51.576;8.076;2022-07-05T13:14:03;25.40;74.50
6690;DHT22;3382;51.576;8.076;2022-07-05T13:16:29;25.20;72.80
6690;DHT22;3382;51.576;8.076;2022-07-05T13:18:54;25.20;73.10
6690;DHT22;3382;51.576;8.076;2022-07-05T13:21:20;25.20;72.60
6690;DHT22;3382;51.576;8.076;2022-07-05T13:23:46;25.00;71.50
6690;DHT22;3382;51.576;8.076;2022-07-05T13:26:12;25.10;72.60
6690;DHT22;3382;51.576;8.076;2022-07-05T13:28:37;25.30;73.70
6690;DHT22;3382;51.576;8.076;2022-07-05T13:31:03;25.40;71.80
6690;DHT22;3382;51.576;8.076;2022-07-05T13:33:28;25.40;70.30
6690;DHT22;3382;51.576;8.076;2022-07-05T13:35:54;25.40;68.80
6690;DHT22;3382;51.576;8.076;2022-07-05T13:38:20;25.30;70.10
6690;DHT22;3382;51.576;8.076;2022-07-05T13:40:45;25.30;71.40
6690;DHT22;3382;51.576;8.076;2022-07-05T13:43:11;25.30;71.50
6690;DHT22;3382;51.576;8.076;2022-07-05T13:45:37;25.30;72.80
6690;DHT22;3382;51.576;8.076;2022-07-05T13:48:02;25.30;72.10
6690;DHT22;3382;51.576;8.076;2022-07-05T13:50:28;25.30;72.50
6690;DHT22;3382;51.576;8.076;2022-07-05T13:52:58;25.20;72.40
6690;DHT22;3382;51.576;8.076;2022-07-05T13:55:23;25.20;72.80
6690;DHT22;3382;51.576;8.076;2022-07-05T13:57:49;25.40;74.20
6690;DHT22;3382;51.576;8.076;2022-07-05T14:00:15;25.50;73.10
6690;DHT22;3382;51.576;8.076;2022-07-05T14:02:41;25.50;72.70
6690;DHT22;3382;51.576;8.076;2022-07-05T14:05:07;25.90;91.00
6690;DHT22;3382;51.576;8.076;2022-07-05T14:07:33;26.40;89.70
6690;DHT22;3382;51.576;8.076;2022-07-05T14:09:59;26.40;79.00
6690;DHT22;3382;51.576;8.076;2022-07-05T14:12:24;25.80;71.70
6690;DHT22;3382;51.576;8.076;2022-07-05T14:14:50;25.50;73.00
6690;DHT22;3382;51.576;8.076;2022-07-05T14:17:16;25.50;72.70
6690;DHT22;3382;51.576;8.076;2022-07-05T14:19:41;25.60;72.30
6690;DHT22;3382;51.576;8.076;2022-07-05T14:22:07;25.60;71.20
6690;DHT22;3382;51.576;8.076;2022-07-05T14:24:32;25.50;70.90
6690;DHT22;3382;51.576;8.076;2022-07-05T14:26:58;25.50;70.60
6690;DHT22;3382;51.576;8.076;2022-07-05T14:29:24;25.50;69.50
6690;DHT22;3382;51.576;8.076;2022-07-05T14:31:49;25.40;69.30
6690;DHT22;3382;51.576;8.076;2022-07-05T14:34:15;25.20;70.10
6690;DHT22;3382;51.576;8.076;2022-07-05T14:36:41;25.30;71.30
6690;DHT22;3382;51.576;8.076;2022-07-05T14:39:06;25.10;71.30
6690;DHT22;3382;51.576;8.076;2022-07-05T14:41:32;25.10;71.80
6690;DHT22;3382;51.576;8.076;2022-07-05T14:43:58;25.20;71.90
6690;DHT22;3382;51.576;8.076;2022-07-05T14:46:23;25.20;72.50
6690;DHT22;3382;51.576;8.076;2022-07-05T14:48:49;25.20;71.00
6690;DHT22;3382;51.576;8.076;2022-07-05T14:51:15;25.10;69.40
6690;DHT22;3382;51.576;8.076;2022-07-05T14:53:42;24.80;70.20
6690;DHT22;3382;51.576;8.076;2022-07-05T14:56:09;25.00;71.70
6690;DHT22;3382;51.576;8.076;2022-07-05T14:58:35;25.00;71.10
6690;DHT22;3382;51.576;8.076;2022-07-05T15:01:01;25.00;70.10
6690;DHT22;3382;51.576;8.076;2022-07-05T15:03:26;25.10;71.20
6690;DHT22;3382;51.576;8.076;2022-07-05T15:05:52;25.20;71.20
6690;DHT22;3382;51.576;8.076;2022-07-05T15:08:19;25.20;71.40
6690;DHT22;3382;51.576;8.076;2022-07-05T15:10:48;25.20;71.80
6690;DHT22;3382;51.576;8.076;2022-07-05T15:13:14;25.30;71.60
6690;DHT22;3382;51.576;8.076;2022-07-05T15:15:39;25.40;70.60
6690;DHT22;3382;51.576;8.076;2022-07-05T15:18:05;25.40;70.50
6690;DHT22;3382;51.576;8.076;2022-07-05T15:20:31;25.50;70.50
6690;DHT22;3382;51.576;8.076;2022-07-05T15:22:56;25.60;71.20
6690;DHT22;3382;51.576;8.076;2022-07-05T15:25:22;25.70;70.90
6690;DHT22;3382;51.576;8.076;2022-07-05T15:27:48;25.60;70.00
6690;DHT22;3382;51.576;8.076;2022-07-05T15:30:15;25.60;69.40
6690;DHT22;3382;51.576;8.076;2022-07-05T15:32:43;25.60;68.80
6690;DHT22;3382;51.576;8.076;2022-07-05T15:35:08;25.60;69.20
6690;DHT22;3382;51.576;8.076;2022-07-05T15:37:34;25.60;68.60
6690;DHT22;3382;51.576;8.076;2022-07-05T15:40:00;25.60;68.60
6690;DHT22;3382;51.576;8.076;2022-07-05T15:42:26;25.50;68.10
6690;DHT22;3382;51.576;8.076;2022-07-05T15:44:52;25.50;68.70
6690;DHT22;3382;51.576;8.076;2022-07-05T15:47:18;25.30;68.30
6690;DHT22;3382;51.576;8.076;2022-07-05T15:49:43;25.20;69.30
6690;DHT22;3382;51.576;8.076;2022-07-05T15:52:09;25.10;69.60
6690;DHT22;3382;51.576;8.076;2022-07-05T15:54:35;25.20;70.30
6690;DHT22;3382;51.576;8.076;2022-07-05T15:57:01;25.20;69.90
6690;DHT22;3382;51.576;8.076;2022-07-05T15:59:27;25.00;69.50
6690;DHT22;3382;51.576;8.076;2022-07-05T16:01:52;24.90;70.70
6690;DHT22;3382;51.576;8.076;2022-07-05T16:04:19;24.80;70.90
6690;DHT22;3382;51.576;8.076;2022-07-05T16:06:47;24.80;72.30
6690;DHT22;3382;51.576;8.076;2022-07-05T16:09:12;24.70;72.60
6690;DHT22;3382;51.576;8.076;2022-07-05T16:11:38;24.80;74.20
6690;DHT22;3382;51.576;8.076;2022-07-05T16:14:04;24.90;74.60
6690;DHT22;3382;51.576;8.076;2022-07-05T16:16:30;25.10;76.40
6690;DHT22;3382;51.576;8.076;2022-07-05T16:18:55;25.10;74.30
6690;DHT22;3382;51.576;8.076;2022-07-05T16:21:22;25.20;73.60
6690;DHT22;3382;51.576;8.076;2022-07-05T16:23:49;25.00;72.60
6690;DHT22;3382;51.576;8.076;2022-07-05T16:26:20;24.90;73.90
6690;DHT22;3382;51.576;8.076;2022-07-05T16:28:45;24.90;74.50
6690;DHT22;3382;51.576;8.076;2022-07-05T16:31:13;24.80;74.50
6690;DHT22;3382;51.576;8.076;2022-07-05T16:33:43;24.70;74.70